sensor_id;sensor_type;location;lat;lon;timestamp;P1;durP1;ratioP1;P2;durP2;ratioP2
18596;SDS011;9428;50.950;6.912;2023-06-22T00:02:32;5.38;;;4.47;;
18596;SDS011;9428;50.950;6.912;2023-06-22T00:05:19;5.13;;;3.80;;
18596;SDS011;9428;50.950;6.912;2023-06-22T00:08:06;6.00;;;4.30;;
18596;SDS011;9428;50.950;6.912;2023-06-22T00:10:55;5.03;;;3.92;;
18596;SDS011;9428;50.950;6.912;2023-06-22T00:13:42;5.10;;;4.05;;
18596;SDS011;9428;50.950;6.912;2023-06-22T00:16:30;6.30;;;4.40;;
18596;SDS011;9428;50.950;6.912;2023-06-22T00:19:18;7.25;;;4.78;;
18596;SDS011;9428;50.950;6.912;2023-06-22T00:22:07;7.40;;;4.18;;
18596;SDS011;9428;50.950;6.912;2023-06-22T00:24:54;6.70;;;4.07;;
18596;SDS011;9428;50.950;6.912;2023-06-22T00:27:43;5.13;;;4.07;;
18596;SDS011;9428;50.950;6.912;2023-06-22T00:30:30;4.20;;;3.70;;
18596;SDS011;9428;50.950;6.912;2023-06-22T00:33:18;9.18;;;4.35;;
18596;SDS011;9428;50.950;6.912;2023-06-22T00:36:05;9.52;;;4.65;;
18596;SDS011;9428;50.950;6.912;2023-06-22T00:38:53;5.53;;;4.35;;
18596;SDS011;9428;50.950;6.912;2023-06-22T00:41:40;6.43;;;4.20;;
18596;SDS011;9428;50.950;6.912;2023-06-22T00:44:28;7.03;;;4.38;;
18596;SDS011;9428;50.950;6.912;2023-06-22T00:47:16;5.05;;;3.90;;
18596;SDS011;9428;50.950;6.912;2023-06-22T00:50:05;4.78;;;3.88;;
18596;SDS011;9428;50.950;6.912;2023-06-22T00:52:57;8.38;;;3.58;;
18596;SDS011;9428;50.950;6.912;2023-06-22T00:55:46;5.00;;;3.85;;
18596;SDS011;9428;50.950;6.912;2023-06-22T00:58:36;5.15;;;4.47;;
18596;SDS011;9428;50.950;6.912;2023-06-22T01:01:28;5.35;;;3.65;;
18596;SDS011;9428;50.950;6.912;2023-06-22T01:04:15;6.22;;;3.90;;
18596;SDS011;9428;50.950;6.912;2023-06-22T01:07:05;6.80;;;3.80;;
18596;SDS011;9428;50.950;6.912;2023-06-22T01:10:14;5.43;;;3.60;;
18596;SDS011;9428;50.950;6.912;2023-06-22T01:13:06;5.82;;;3.90;;
18596;SDS011;9428;50.950;6.912;2023-06-22T01:16:00;5.57;;;4.05;;
18596;SDS011;9428;50.950;6.912;2023-06-22T01:18:52;4.53;;;3.75;;
18596;SDS011;9428;50.950;6.912;2023-06-22T01:21:41;6.75;;;4.05;;
18596;SDS011;9428;50.950;6.912;2023-06-22T01:24:31;4.93;;;3.90;;
18596;SDS011;9428;50.950;6.912;2023-06-22T01:27:28;4.43;;;3.63;;
18596;SDS011;9428;50.950;6.912;2023-06-22T01:30:28;5.32;;;3.45;;
18596;SDS011;9428;50.950;6.912;2023-06-22T01:33:19;9.73;;;4.32;;
18596;SDS011;9428;50.950;6.912;2023-06-22T01:36:07;7.00;;;4.13;;
18596;SDS011;9428;50.950;6.912;2023-06-22T01:38:54;4.82;;;3.45;;
18596;SDS011;9428;50.950;6.912;2023-06-22T01:41:44;5.60;;;4.25;;
18596;SDS011;9428;50.950;6.912;2023-06-22T01:44:32;4.78;;;3.70;;
18596;SDS011;9428;50.950;6.912;2023-06-22T01:47:22;5.45;;;4.25;;
18596;SDS011;9428;50.950;6.912;2023-06-22T01:50:10;5.78;;;3.67;;
18596;SDS011;9428;50.950;6.912;2023-06-22T01:52:57;6.07;;;4.13;;
18596;SDS011;9428;50.950;6.912;2023-06-22T01:55:45;7.03;;;3.72;;
18596;SDS011;9428;50.950;6.912;2023-06-22T01:58:32;5.15;;;3.78;;
18596;SDS011;9428;50.950;6.912;2023-06-22T02:01:24;4.03;;;3.42;;
18596;SDS011;9428;50.950;6.912;2023-06-22T02:04:18;5.10;;;3.58;;
18596;SDS011;9428;50.950;6.912;2023-06-22T02:07:08;5.18;;;3.95;;
18596;SDS011;9428;50.950;6.912;2023-06-22T02:09:59;6.82;;;4.03;;
18596;SDS011;9428;50.950;6.912;2023-06-22T02:12:48;5.75;;;3.90;;
18596;SDS011;9428;50.950;6.912;2023-06-22T02:15:37;7.43;;;4.03;;
18596;SDS011;9428;50.950;6.912;2023-06-22T02:18:25;4.68;;;3.60;;
18596;SDS011;9428;50.950;6.912;2023-06-22T02:21:13;5.80;;;3.97;;
18596;SDS011;9428;50.950;6.912;2023-06-22T02:24:01;4.18;;;3.40;;
18596;SDS011;9428;50.950;6.912;2023-06-22T02:26:48;7.55;;;3.67;;
18596;SDS011;9428;50.950;6.912;2023-06-22T02:29:36;6.18;;;4.30;;
18596;SDS011;9428;50.950;6.912;2023-06-22T02:32:23;5.90;;;4.00;;
18596;SDS011;9428;50.950;6.912;2023-06-22T02:35:10;5.28;;;4.20;;
18596;SDS011;9428;50.950;6.912;2023-06-22T02:37:59;5.60;;;4.07;;
18596;SDS011;9428;50.950;6.912;2023-06-22T02:40:47;5.85;;;3.88;;
18596;SDS011;9428;50.950;6.912;2023-06-22T02:43:34;5.00;;;3.95;;
18596;SDS011;9428;50.950;6.912;2023-06-22T02:46:21;4.72;;;3.70;;
18596;SDS011;9428;50.950;6.912;2023-06-22T02:49:09;7.85;;;3.80;;
18596;SDS011;9428;50.950;6.912;2023-06-22T02:51:57;4.65;;;3.65;;
18596;SDS011;9428;50.950;6.912;2023-06-22T02:54:45;3.60;;;2.95;;
18596;SDS011;9428;50.950;6.912;2023-06-22T02:57:32;10.32;;;4.60;;
18596;SDS011;9428;50.950;6.912;2023-06-22T03:00:20;4.40;;;3.70;;
18596;SDS011;9428;50.950;6.912;2023-06-22T03:03:07;5.55;;;3.75;;
18596;SDS011;9428;50.950;6.912;2023-06-22T03:05:54;5.55;;;3.60;;
18596;SDS011;9428;50.950;6.912;2023-06-22T03:08:41;4.80;;;3.50;;
18596;SDS011;9428;50.950;6.912;2023-06-22T03:11:30;5.53;;;3.67;;
18596;SDS011;9428;50.950;6.912;2023-06-22T03:14:17;6.35;;;3.55;;
18596;SDS011;9428;50.950;6.912;2023-06-22T03:17:05;7.43;;;3.85;;
18596;SDS011;9428;50.950;6.912;2023-06-22T03:19:52;4.93;;;3.40;;
18596;SDS011;9428;50.950;6.912;2023-06-22T03:22:40;5.20;;;3.95;;
18596;SDS011;9428;50.950;6.912;2023-06-22T03:25:28;5.22;;;3.70;;
18596;SDS011;9428;50.950;6.912;2023-06-22T03:28:17;4.97;;;3.50;;
18596;SDS011;9428;50.950;6.912;2023-06-22T03:31:04;5.07;;;4.10;;
18596;SDS011;9428;50.950;6.912;2023-06-22T03:33:52;5.32;;;3.35;;
18596;SDS011;9428;50.950;6.912;2023-06-22T03:36:39;4.50;;;3.90;;
18596;SDS011;9428;50.950;6.912;2023-06-22T03:39:26;5.07;;;3.55;;
18596;SDS011;9428;50.950;6.912;2023-06-22T03:42:13;5.35;;;4.10;;
18596;SDS011;9428;50.950;6.912;2023-06-22T03:45:02;8.57;;;3.97;;
18596;SDS011;9428;50.950;6.912;2023-06-22T03:47:50;5.85;;;3.67;;
18596;SDS011;9428;50.950;6.912;2023-06-22T03:50:38;6.40;;;4.20;;
18596;SDS011;9428;50.950;6.912;2023-06-22T03:53:25;5.88;;;3.70;;
18596;SDS011;9428;50.950;6.912;2023-06-22T03:56:13;8.60;;;3.95;;
18596;SDS011;9428;50.950;6.912;2023-06-22T03:59:05;5.65;;;3.58;;
18596;SDS011;9428;50.950;6.912;2023-06-22T04:01:54;5.45;;;3.65;;
18596;SDS011;9428;50.950;6.912;2023-06-22T04:04:41;6.15;;;3.75;;
18596;SDS011;9428;50.950;6.912;2023-06-22T04:07:28;7.70;;;4.22;;
18596;SDS011;9428;50.950;6.912;2023-06-22T04:10:15;6.22;;;4.38;;
18596;SDS011;9428;50.950;6.912;2023-06-22T04:13:03;5.13;;;3.88;;
18596;SDS011;9428;50.950;6.912;2023-06-22T04:15:50;4.15;;;3.55;;
18596;SDS011;9428;50.950;6.912;2023-06-22T04:18:38;9.38;;;4.57;;
18596;SDS011;9428;50.950;6.912;2023-06-22T04:21:27;7.07;;;4.75;;
18596;SDS011;9428;50.950;6.912;2023-06-22T04:24:14;5.80;;;4.88;;
18596;SDS011;9428;50.950;6.912;2023-06-22T04:27:02;5.70;;;4.80;;
18596;SDS011;9428;50.950;6.912;2023-06-22T04:29:50;6.85;;;4.90;;
18596;SDS011;9428;50.950;6.912;2023-06-22T04:32:37;5.45;;;4.95;;
18596;SDS011;9428;50.950;6.912;2023-06-22T04:35:26;10.98;;;5.18;;
18596;SDS011;9428;50.950;6.912;2023-06-22T04:38:13;6.72;;;4.95;;
18596;SDS011;9428;50.950;6.912;2023-06-22T04:41:01;5.78;;;4.90;;
18596;SDS011;9428;50.950;6.912;2023-06-22T04:43:48;10.02;;;5.47;;
18596;SDS011;9428;50.950;6.912;2023-06-22T04:46:39;6.38;;;5.65;;
18596;SDS011;9428;50.950;6.912;2023-06-22T04:49:27;8.05;;;5.70;;
18596;SDS011;9428;50.950;6.912;2023-06-22T04:52:19;8.45;;;5.97;;
18596;SDS011;9428;50.950;6.912;2023-06-22T04:55:07;7.95;;;6.53;;
18596;SDS011;9428;50.950;6.912;2023-06-22T04:57:54;7.65;;;5.95;;
18596;SDS011;9428;50.950;6.912;2023-06-22T05:00:41;7.70;;;6.43;;
18596;SDS011;9428;50.950;6.912;2023-06-22T05:03:30;8.38;;;7.03;;
18596;SDS011;9428;50.950;6.912;2023-06-22T05:06:17;9.02;;;6.78;;
18596;SDS011;9428;50.950;6.912;2023-06-22T05:09:05;9.27;;;6.47;;
18596;SDS011;9428;50.950;6.912;2023-06-22T05:11:53;8.80;;;6.82;;
18596;SDS011;9428;50.950;6.912;2023-06-22T05:14:41;7.80;;;7.00;;
18596;SDS011;9428;50.950;6.912;2023-06-22T05:17:29;8.50;;;7.28;;
18596;SDS011;9428;50.950;6.912;2023-06-22T05:20:16;9.20;;;7.47;;
18596;SDS011;9428;50.950;6.912;2023-06-22T05:23:04;9.35;;;7.63;;
18596;SDS011;9428;50.950;6.912;2023-06-22T05:25:52;9.52;;;7.28;;
18596;SDS011;9428;50.950;6.912;2023-06-22T05:28:42;9.02;;;7.32;;
18596;SDS011;9428;50.950;6.912;2023-06-22T05:31:31;10.80;;;7.70;;
18596;SDS011;9428;50.950;6.912;2023-06-22T05:34:18;9.90;;;7.80;;
18596;SDS011;9428;50.950;6.912;2023-06-22T05:37:06;9.52;;;7.53;;
18596;SDS011;9428;50.950;6.912;2023-06-22T05:39:54;10.35;;;7.72;;
18596;SDS011;9428;50.950;6.912;2023-06-22T05:42:44;9.15;;;7.40;;
18596;SDS011;9428;50.950;6.912;2023-06-22T05:45:31;9.35;;;7.63;;
18596;SDS011;9428;50.950;6.912;2023-06-22T05:48:18;9.30;;;7.25;;
18596;SDS011;9428;50.950;6.912;2023-06-22T05:51:05;8.75;;;7.65;;
18596;SDS011;9428;50.950;6.912;2023-06-22T05:53:52;8.82;;;7.82;;
18596;SDS011;9428;50.950;6.912;2023-06-22T05:56:40;10.75;;;7.82;;
18596;SDS011;9428;50.950;6.912;2023-06-22T05:59:28;8.65;;;7.28;;
18596;SDS011;9428;50.950;6.912;2023-06-22T06:02:15;8.00;;;7.15;;
18596;SDS011;9428;50.950;6.912;2023-06-22T06:05:03;9.80;;;7.80;;
18596;SDS011;9428;50.950;6.912;2023-06-22T06:07:50;8.50;;;7.32;;
18596;SDS011;9428;50.950;6.912;2023-06-22T06:10:38;12.65;;;7.65;;
18596;SDS011;9428;50.950;6.912;2023-06-22T06:13:25;8.68;;;7.75;;
18596;SDS011;9428;50.950;6.912;2023-06-22T06:16:14;9.55;;;7.45;;
18596;SDS011;9428;50.950;6.912;2023-06-22T06:19:01;9.10;;;7.35;;
18596;SDS011;9428;50.950;6.912;2023-06-22T06:21:48;8.70;;;7.78;;
18596;SDS011;9428;50.950;6.912;2023-06-22T06:24:36;8.85;;;7.95;;
18596;SDS011;9428;50.950;6.912;2023-06-22T06:27:23;10.65;;;7.60;;
18596;SDS011;9428;50.950;6.912;2023-06-22T06:30:15;8.80;;;7.88;;
18596;SDS011;9428;50.950;6.912;2023-06-22T06:33:04;9.02;;;7.47;;
18596;SDS011;9428;50.950;6.912;2023-06-22T06:35:54;10.48;;;7.72;;
18596;SDS011;9428;50.950;6.912;2023-06-22T06:38:41;9.15;;;7.40;;
18596;SDS011;9428;50.950;6.912;2023-06-22T06:41:28;9.85;;;7.28;;
18596;SDS011;9428;50.950;6.912;2023-06-22T06:44:15;9.90;;;7.40;;
18596;SDS011;9428;50.950;6.912;2023-06-22T06:47:03;9.63;;;7.78;;
18596;SDS011;9428;50.950;6.912;2023-06-22T06:49:52;10.75;;;8.10;;
18596;SDS011;9428;50.950;6.912;2023-06-22T06:52:39;10.85;;;8.18;;
18596;SDS011;9428;50.950;6.912;2023-06-22T06:55:26;9.63;;;7.65;;
18596;SDS011;9428;50.950;6.912;2023-06-22T06:58:18;8.63;;;7.60;;
18596;SDS011;9428;50.950;6.912;2023-06-22T07:01:05;11.38;;;7.80;;
18596;SDS011;9428;50.950;6.912;2023-06-22T07:03:52;8.82;;;7.18;;
18596;SDS011;9428;50.950;6.912;2023-06-22T07:06:41;7.88;;;7.07;;
18596;SDS011;9428;50.950;6.912;2023-06-22T07:09:28;8.85;;;7.57;;
18596;SDS011;9428;50.950;6.912;2023-06-22T07:12:15;7.82;;;6.88;;
18596;SDS011;9428;50.950;6.912;2023-06-22T07:15:03;9.15;;;8.07;;
18596;SDS011;9428;50.950;6.912;2023-06-22T07:17:53;8.82;;;7.63;;
18596;SDS011;9428;50.950;6.912;2023-06-22T07:20:40;12.35;;;7.35;;
18596;SDS011;9428;50.950;6.912;2023-06-22T07:23:29;8.30;;;7.43;;
18596;SDS011;9428;50.950;6.912;2023-06-22T07:26:16;7.68;;;6.90;;
18596;SDS011;9428;50.950;6.912;2023-06-22T07:29:03;9.57;;;7.55;;
18596;SDS011;9428;50.950;6.912;2023-06-22T07:31:50;11.20;;;8.50;;
18596;SDS011;9428;50.950;6.912;2023-06-22T07:34:38;9.30;;;6.90;;
18596;SDS011;9428;50.950;6.912;2023-06-22T07:37:25;7.57;;;6.78;;
18596;SDS011;9428;50.950;6.912;2023-06-22T07:40:14;7.90;;;7.10;;
18596;SDS011;9428;50.950;6.912;2023-06-22T07:43:01;10.13;;;7.40;;
18596;SDS011;9428;50.950;6.912;2023-06-22T07:45:49;18.60;;;8.77;;
18596;SDS011;9428;50.950;6.912;2023-06-22T07:48:38;10.18;;;8.18;;
18596;SDS011;9428;50.950;6.912;2023-06-22T07:51:27;9.80;;;7.95;;
18596;SDS011;9428;50.950;6.912;2023-06-22T07:54:14;9.32;;;8.32;;
18596;SDS011;9428;50.950;6.912;2023-06-22T07:57:05;8.13;;;7.32;;
18596;SDS011;9428;50.950;6.912;2023-06-22T07:59:52;9.40;;;7.35;;
18596;SDS011;9428;50.950;6.912;2023-06-22T08:02:40;9.73;;;7.03;;
18596;SDS011;9428;50.950;6.912;2023-06-22T08:05:28;8.77;;;7.50;;
18596;SDS011;9428;50.950;6.912;2023-06-22T08:08:15;11.70;;;7.85;;
18596;SDS011;9428;50.950;6.912;2023-06-22T08:11:03;9.65;;;7.03;;
18596;SDS011;9428;50.950;6.912;2023-06-22T08:14:01;9.27;;;7.78;;
18596;SDS011;9428;50.950;6.912;2023-06-22T08:16:48;8.35;;;7.18;;
18596;SDS011;9428;50.950;6.912;2023-06-22T08:19:36;15.30;;;7.82;;
18596;SDS011;9428;50.950;6.912;2023-06-22T08:22:23;13.50;;;7.63;;
18596;SDS011;9428;50.950;6.912;2023-06-22T08:25:11;8.18;;;7.20;;
18596;SDS011;9428;50.950;6.912;2023-06-22T08:28:00;8.15;;;7.32;;
18596;SDS011;9428;50.950;6.912;2023-06-22T08:30:51;9.82;;;7.07;;
18596;SDS011;9428;50.950;6.912;2023-06-22T08:33:41;9.80;;;6.85;;
18596;SDS011;9428;50.950;6.912;2023-06-22T08:36:31;8.40;;;6.63;;
18596;SDS011;9428;50.950;6.912;2023-06-22T08:39:20;9.52;;;7.90;;
18596;SDS011;9428;50.950;6.912;2023-06-22T08:42:07;16.08;;;7.13;;
18596;SDS011;9428;50.950;6.912;2023-06-22T08:44:55;7.97;;;7.10;;
18596;SDS011;9428;50.950;6.912;2023-06-22T08:47:43;9.75;;;7.30;;
18596;SDS011;9428;50.950;6.912;2023-06-22T08:50:30;12.65;;;7.10;;
18596;SDS011;9428;50.950;6.912;2023-06-22T08:53:18;7.28;;;6.57;;
18596;SDS011;9428;50.950;6.912;2023-06-22T08:56:05;10.95;;;7.35;;
18596;SDS011;9428;50.950;6.912;2023-06-22T08:58:52;8.50;;;6.68;;
18596;SDS011;9428;50.950;6.912;2023-06-22T09:01:40;12.13;;;7.30;;
18596;SDS011;9428;50.950;6.912;2023-06-22T09:04:32;9.68;;;7.45;;
18596;SDS011;9428;50.950;6.912;2023-06-22T09:07:20;10.15;;;7.25;;
18596;SDS011;9428;50.950;6.912;2023-06-22T09:10:10;12.32;;;7.10;;
18596;SDS011;9428;50.950;6.912;2023-06-22T09:12:57;13.07;;;7.72;;
18596;SDS011;9428;50.950;6.912;2023-06-22T09:15:44;7.97;;;7.18;;
18596;SDS011;9428;50.950;6.912;2023-06-22T09:18:32;12.32;;;7.38;;
18596;SDS011;9428;50.950;6.912;2023-06-22T09:21:22;9.90;;;7.53;;
18596;SDS011;9428;50.950;6.912;2023-06-22T09:24:10;10.05;;;7.70;;
18596;SDS011;9428;50.950;6.912;2023-06-22T09:26:57;10.57;;;7.00;;
18596;SDS011;9428;50.950;6.912;2023-06-22T09:29:45;10.80;;;7.03;;
18596;SDS011;9428;50.950;6.912;2023-06-22T09:32:32;8.57;;;6.22;;
18596;SDS011;9428;50.950;6.912;2023-06-22T09:35:19;8.60;;;6.38;;
18596;SDS011;9428;50.950;6.912;2023-06-22T09:38:08;20.52;;;9.18;;
18596;SDS011;9428;50.950;6.912;2023-06-22T09:40:55;12.88;;;8.32;;
18596;SDS011;9428;50.950;6.912;2023-06-22T09:43:42;8.68;;;6.97;;
18596;SDS011;9428;50.950;6.912;2023-06-22T09:46:29;12.73;;;7.05;;
18596;SDS011;9428;50.950;6.912;2023-06-22T09:49:17;12.68;;;6.97;;
18596;SDS011;9428;50.950;6.912;2023-06-22T09:52:04;14.63;;;8.02;;
18596;SDS011;9428;50.950;6.912;2023-06-22T09:54:53;9.73;;;7.70;;
18596;SDS011;9428;50.950;6.912;2023-06-22T09:57:41;13.00;;;7.50;;
18596;SDS011;9428;50.950;6.912;2023-06-22T10:00:28;8.60;;;7.70;;
18596;SDS011;9428;50.950;6.912;2023-06-22T10:03:15;16.50;;;7.75;;
18596;SDS011;9428;50.950;6.912;2023-06-22T10:06:02;9.80;;;7.47;;
18596;SDS011;9428;50.950;6.912;2023-06-22T10:08:50;15.50;;;7.78;;
18596;SDS011;9428;50.950;6.912;2023-06-22T10:11:39;8.10;;;6.70;;
18596;SDS011;9428;50.950;6.912;2023-06-22T10:14:26;8.80;;;7.00;;
18596;SDS011;9428;50.950;6.912;2023-06-22T10:17:15;8.95;;;6.40;;
18596;SDS011;9428;50.950;6.912;2023-06-22T10:20:02;10.02;;;7.25;;
18596;SDS011;9428;50.950;6.912;2023-06-22T10:22:56;11.10;;;8.48;;
18596;SDS011;9428;50.950;6.912;2023-06-22T10:25:43;10.25;;;6.97;;
18596;SDS011;9428;50.950;6.912;2023-06-22T10:28:32;8.38;;;7.20;;
18596;SDS011;9428;50.950;6.912;2023-06-22T10:31:19;8.65;;;7.55;;
18596;SDS011;9428;50.950;6.912;2023-06-22T10:34:06;12.68;;;7.43;;
18596;SDS011;9428;50.950;6.912;2023-06-22T10:36:54;11.75;;;6.95;;
18596;SDS011;9428;50.950;6.912;2023-06-22T10:39:41;12.77;;;8.15;;
18596;SDS011;9428;50.950;6.912;2023-06-22T10:42:28;10.68;;;8.23;;
18596;SDS011;9428;50.950;6.912;2023-06-22T10:45:16;9.52;;;7.53;;
18596;SDS011;9428;50.950;6.912;2023-06-22T10:48:04;17.10;;;9.43;;
18596;SDS011;9428;50.950;6.912;2023-06-22T10:50:51;9.15;;;7.68;;
18596;SDS011;9428;50.950;6.912;2023-06-22T10:53:39;11.25;;;9.32;;
18596;SDS011;9428;50.950;6.912;2023-06-22T10:56:27;10.77;;;9.02;;
18596;SDS011;9428;50.950;6.912;2023-06-22T10:59:14;10.95;;;9.43;;
18596;SDS011;9428;50.950;6.912;2023-06-22T11:02:02;11.32;;;9.70;;
18596;SDS011;9428;50.950;6.912;2023-06-22T11:04:50;13.07;;;10.45;;
18596;SDS011;9428;50.950;6.912;2023-06-22T11:07:37;14.65;;;10.25;;
18596;SDS011;9428;50.950;6.912;2023-06-22T11:10:27;17.45;;;11.63;;
18596;SDS011;9428;50.950;6.912;2023-06-22T11:13:15;12.48;;;10.20;;
18596;SDS011;9428;50.950;6.912;2023-06-22T11:16:02;15.93;;;11.73;;
18596;SDS011;9428;50.950;6.912;2023-06-22T11:18:51;14.13;;;10.48;;
18596;SDS011;9428;50.950;6.912;2023-06-22T11:21:38;21.58;;;12.02;;
18596;SDS011;9428;50.950;6.912;2023-06-22T11:24:25;14.23;;;11.68;;
18596;SDS011;9428;50.950;6.912;2023-06-22T11:27:13;15.07;;;12.07;;
18596;SDS011;9428;50.950;6.912;2023-06-22T11:30:01;18.90;;;12.88;;
18596;SDS011;9428;50.950;6.912;2023-06-22T11:32:49;16.55;;;13.05;;
18596;SDS011;9428;50.950;6.912;2023-06-22T11:35:37;19.63;;;13.48;;
18596;SDS011;9428;50.950;6.912;2023-06-22T11:38:25;15.10;;;12.05;;
18596;SDS011;9428;50.950;6.912;2023-06-22T11:41:12;14.20;;;11.93;;
18596;SDS011;9428;50.950;6.912;2023-06-22T11:44:00;15.15;;;12.75;;
18596;SDS011;9428;50.950;6.912;2023-06-22T11:46:49;18.15;;;13.75;;
18596;SDS011;9428;50.950;6.912;2023-06-22T11:49:37;17.52;;;12.98;;
18596;SDS011;9428;50.950;6.912;2023-06-22T11:52:25;15.77;;;13.05;;
18596;SDS011;9428;50.950;6.912;2023-06-22T11:55:13;15.32;;;12.50;;
18596;SDS011;9428;50.950;6.912;2023-06-22T11:58:01;15.80;;;14.10;;
18596;SDS011;9428;50.950;6.912;2023-06-22T12:00:50;18.08;;;14.25;;
18596;SDS011;9428;50.950;6.912;2023-06-22T12:03:37;17.15;;;14.23;;
18596;SDS011;9428;50.950;6.912;2023-06-22T12:06:24;20.25;;;13.43;;
18596;SDS011;9428;50.950;6.912;2023-06-22T12:09:13;14.93;;;13.32;;
18596;SDS011;9428;50.950;6.912;2023-06-22T12:12:00;17.15;;;12.98;;
18596;SDS011;9428;50.950;6.912;2023-06-22T12:14:47;15.80;;;13.23;;
18596;SDS011;9428;50.950;6.912;2023-06-22T12:17:35;15.73;;;13.93;;
18596;SDS011;9428;50.950;6.912;2023-06-22T12:20:22;14.93;;;13.38;;
18596;SDS011;9428;50.950;6.912;2023-06-22T12:23:09;18.45;;;16.02;;
18596;SDS011;9428;50.950;6.912;2023-06-22T12:25:58;19.30;;;15.93;;
18596;SDS011;9428;50.950;6.912;2023-06-22T12:28:47;17.23;;;14.82;;
18596;SDS011;9428;50.950;6.912;2023-06-22T12:31:35;21.15;;;14.05;;
18596;SDS011;9428;50.950;6.912;2023-06-22T12:34:24;14.40;;;12.88;;
18596;SDS011;9428;50.950;6.912;2023-06-22T12:37:11;17.75;;;14.32;;
18596;SDS011;9428;50.950;6.912;2023-06-22T12:39:58;17.42;;;14.77;;
18596;SDS011;9428;50.950;6.912;2023-06-22T12:42:47;16.65;;;12.85;;
18596;SDS011;9428;50.950;6.912;2023-06-22T12:45:35;13.52;;;11.85;;
18596;SDS011;9428;50.950;6.912;2023-06-22T12:48:22;12.48;;;10.90;;
18596;SDS011;9428;50.950;6.912;2023-06-22T12:51:10;12.30;;;10.65;;
18596;SDS011;9428;50.950;6.912;2023-06-22T12:53:57;13.18;;;10.70;;
18596;SDS011;9428;50.950;6.912;2023-06-22T12:56:44;11.05;;;9.85;;
18596;SDS011;9428;50.950;6.912;2023-06-22T12:59:33;11.23;;;9.55;;
18596;SDS011;9428;50.950;6.912;2023-06-22T13:02:21;12.88;;;10.10;;
18596;SDS011;9428;50.950;6.912;2023-06-22T13:05:08;10.40;;;9.40;;
18596;SDS011;9428;50.950;6.912;2023-06-22T13:07:55;10.85;;;9.25;;
18596;SDS011;9428;50.950;6.912;2023-06-22T13:10:42;16.45;;;10.20;;
18596;SDS011;9428;50.950;6.912;2023-06-22T13:13:30;13.93;;;10.82;;
18596;SDS011;9428;50.950;6.912;2023-06-22T13:16:20;11.90;;;9.90;;
18596;SDS011;9428;50.950;6.912;2023-06-22T13:19:08;11.18;;;9.98;;
18596;SDS011;9428;50.950;6.912;2023-06-22T13:21:57;11.20;;;8.95;;
18596;SDS011;9428;50.950;6.912;2023-06-22T13:24:45;11.23;;;8.63;;
18596;SDS011;9428;50.950;6.912;2023-06-22T13:27:32;10.02;;;7.85;;
18596;SDS011;9428;50.950;6.912;2023-06-22T13:30:20;8.05;;;6.90;;
18596;SDS011;9428;50.950;6.912;2023-06-22T13:33:08;8.45;;;7.13;;
18596;SDS011;9428;50.950;6.912;2023-06-22T13:35:56;7.97;;;7.18;;
18596;SDS011;9428;50.950;6.912;2023-06-22T13:38:43;8.07;;;6.90;;
18596;SDS011;9428;50.950;6.912;2023-06-22T13:41:30;7.55;;;6.40;;
18596;SDS011;9428;50.950;6.912;2023-06-22T13:44:17;8.88;;;7.03;;
18596;SDS011;9428;50.950;6.912;2023-06-22T13:47:06;9.07;;;6.72;;
18596;SDS011;9428;50.950;6.912;2023-06-22T13:49:55;9.35;;;6.82;;
18596;SDS011;9428;50.950;6.912;2023-06-22T13:52:43;7.80;;;6.57;;
18596;SDS011;9428;50.950;6.912;2023-06-22T13:55:30;7.78;;;5.90;;
18596;SDS011;9428;50.950;6.912;2023-06-22T13:58:17;7.30;;;6.20;;
18596;SDS011;9428;50.950;6.912;2023-06-22T14:01:05;6.32;;;5.70;;
18596;SDS011;9428;50.950;6.912;2023-06-22T14:03:52;6.63;;;5.38;;
18596;SDS011;9428;50.950;6.912;2023-06-22T14:06:41;6.03;;;5.28;;
18596;SDS011;9428;50.950;6.912;2023-06-22T14:09:28;5.45;;;4.85;;
18596;SDS011;9428;50.950;6.912;2023-06-22T14:12:15;6.95;;;5.10;;
18596;SDS011;9428;50.950;6.912;2023-06-22T14:15:03;7.63;;;4.50;;
18596;SDS011;9428;50.950;6.912;2023-06-22T14:17:51;4.93;;;4.32;;
18596;SDS011;9428;50.950;6.912;2023-06-22T14:20:38;5.13;;;4.50;;
18596;SDS011;9428;50.950;6.912;2023-06-22T14:23:27;6.53;;;4.70;;
18596;SDS011;9428;50.950;6.912;2023-06-22T14:26:14;4.97;;;4.47;;
18596;SDS011;9428;50.950;6.912;2023-06-22T14:29:02;4.97;;;4.47;;
18596;SDS011;9428;50.950;6.912;2023-06-22T14:31:50;6.20;;;5.60;;
18596;SDS011;9428;50.950;6.912;2023-06-22T14:34:37;7.70;;;5.75;;
18596;SDS011;9428;50.950;6.912;2023-06-22T14:37:25;6.95;;;6.07;;
18596;SDS011;9428;50.950;6.912;2023-06-22T14:40:14;7.45;;;5.45;;
18596;SDS011;9428;50.950;6.912;2023-06-22T14:43:01;8.23;;;6.00;;
18596;SDS011;9428;50.950;6.912;2023-06-22T14:45:48;7.85;;;5.80;;
18596;SDS011;9428;50.950;6.912;2023-06-22T14:48:35;11.10;;;5.85;;
18596;SDS011;9428;50.950;6.912;2023-06-22T14:51:23;10.20;;;6.30;;
18596;SDS011;9428;50.950;6.912;2023-06-22T14:54:10;7.07;;;5.60;;
18596;SDS011;9428;50.950;6.912;2023-06-22T14:56:58;7.55;;;5.90;;
18596;SDS011;9428;50.950;6.912;2023-06-22T14:59:46;9.38;;;6.13;;
18596;SDS011;9428;50.950;6.912;2023-06-22T15:02:34;6.72;;;5.10;;
18596;SDS011;9428;50.950;6.912;2023-06-22T15:05:21;6.03;;;5.30;;
18596;SDS011;9428;50.950;6.912;2023-06-22T15:08:09;6.57;;;5.07;;
18596;SDS011;9428;50.950;6.912;2023-06-22T15:10:58;13.93;;;8.98;;
18596;SDS011;9428;50.950;6.912;2023-06-22T15:13:48;11.00;;;7.55;;
18596;SDS011;9428;50.950;6.912;2023-06-22T15:16:35;12.20;;;7.93;;
18596;SDS011;9428;50.950;6.912;2023-06-22T15:19:22;12.88;;;9.70;;
18596;SDS011;9428;50.950;6.912;2023-06-22T15:22:09;10.38;;;6.80;;
18596;SDS011;9428;50.950;6.912;2023-06-22T15:24:57;9.80;;;7.13;;
18596;SDS011;9428;50.950;6.912;2023-06-22T15:27:44;10.57;;;7.68;;
18596;SDS011;9428;50.950;6.912;2023-06-22T15:30:32;9.25;;;7.45;;
18596;SDS011;9428;50.950;6.912;2023-06-22T15:33:20;12.15;;;7.70;;
18596;SDS011;9428;50.950;6.912;2023-06-22T15:36:07;9.73;;;7.28;;
18596;SDS011;9428;50.950;6.912;2023-06-22T15:38:54;13.10;;;8.65;;
18596;SDS011;9428;50.950;6.912;2023-06-22T15:41:42;10.20;;;8.23;;
18596;SDS011;9428;50.950;6.912;2023-06-22T15:44:29;10.80;;;8.15;;
18596;SDS011;9428;50.950;6.912;2023-06-22T15:47:17;10.82;;;8.38;;
18596;SDS011;9428;50.950;6.912;2023-06-22T15:50:06;12.98;;;9.38;;
18596;SDS011;9428;50.950;6.912;2023-06-22T15:52:54;10.50;;;9.15;;
18596;SDS011;9428;50.950;6.912;2023-06-22T15:55:41;15.80;;;10.00;;
18596;SDS011;9428;50.950;6.912;2023-06-22T15:58:28;10.52;;;9.23;;
18596;SDS011;9428;50.950;6.912;2023-06-22T16:01:16;15.82;;;10.43;;
18596;SDS011;9428;50.950;6.912;2023-06-22T16:04:04;15.05;;;10.02;;
18596;SDS011;9428;50.950;6.912;2023-06-22T16:06:51;10.65;;;9.43;;
18596;SDS011;9428;50.950;6.912;2023-06-22T16:09:39;10.50;;;9.30;;
18596;SDS011;9428;50.950;6.912;2023-06-22T16:12:26;10.48;;;9.15;;
18596;SDS011;9428;50.950;6.912;2023-06-22T16:15:14;10.57;;;9.05;;
18596;SDS011;9428;50.950;6.912;2023-06-22T16:18:02;10.98;;;9.02;;
18596;SDS011;9428;50.950;6.912;2023-06-22T16:20:51;11.55;;;9.75;;
18596;SDS011;9428;50.950;6.912;2023-06-22T16:23:38;15.27;;;9.52;;
18596;SDS011;9428;50.950;6.912;2023-06-22T16:26:26;11.32;;;9.43;;
18596;SDS011;9428;50.950;6.912;2023-06-22T16:29:16;16.88;;;11.90;;
18596;SDS011;9428;50.950;6.912;2023-06-22T16:32:04;13.30;;;10.82;;
18596;SDS011;9428;50.950;6.912;2023-06-22T16:34:52;18.25;;;11.25;;
18596;SDS011;9428;50.950;6.912;2023-06-22T16:37:41;18.20;;;13.13;;
18596;SDS011;9428;50.950;6.912;2023-06-22T16:40:28;15.10;;;11.32;;
18596;SDS011;9428;50.950;6.912;2023-06-22T16:43:16;14.73;;;10.90;;
18596;SDS011;9428;50.950;6.912;2023-06-22T16:46:03;17.15;;;12.90;;
18596;SDS011;9428;50.950;6.912;2023-06-22T16:48:50;15.02;;;12.18;;
18596;SDS011;9428;50.950;6.912;2023-06-22T16:51:38;12.95;;;11.43;;
18596;SDS011;9428;50.950;6.912;2023-06-22T16:54:27;12.15;;;10.38;;
18596;SDS011;9428;50.950;6.912;2023-06-22T16:57:15;13.77;;;10.60;;
18596;SDS011;9428;50.950;6.912;2023-06-22T17:00:04;11.18;;;8.57;;